createdAt,value
2023-03-18T00:00:48.785Z,9.50
2023-03-18T00:05:50.662Z,8.60
2023-03-18T00:10:52.751Z,9.83
2023-03-18T00:15:55.020Z,10.17
2023-03-18T00:20:59.036Z,9.97
2023-03-18T00:26:02.298Z,11.07
2023-03-18T00:31:10.686Z,10.13
2023-03-18T00:36:14.053Z,11.73
2023-03-18T00:41:16.378Z,11.47
2023-03-18T00:46:26.565Z,11.93
2023-03-18T00:51:31.599Z,12.53
2023-03-18T00:56:34.953Z,12.23
2023-03-18T01:01:37.693Z,13.17
2023-03-18T01:06:40.315Z,14.97
2023-03-18T01:11:44.658Z,13.07
2023-03-18T01:16:47.079Z,13.27
2023-03-18T01:21:49.006Z,14.03
2023-03-18T01:26:52.024Z,14.17
2023-03-18T01:31:55.129Z,13.33
2023-03-18T01:36:59.135Z,13.30
2023-03-18T01:42:06.430Z,13.13
2023-03-18T01:47:10.675Z,13.70
2023-03-18T01:52:19.046Z,13.77
2023-03-18T01:57:24.019Z,14.87
2023-03-18T02:02:26.966Z,14.43
2023-03-18T02:07:32.693Z,13.90
2023-03-18T02:12:38.473Z,13.00
2023-03-18T02:17:47.636Z,13.53
2023-03-18T02:22:54.657Z,13.13
2023-03-18T02:28:03.446Z,13.33
2023-03-18T02:33:10.845Z,12.70
2023-03-18T02:38:12.957Z,13.23
2023-03-18T02:43:21.010Z,13.80
2023-03-18T02:48:35.860Z,14.10
2023-03-18T02:53:38.537Z,13.33
2023-03-18T02:58:41.096Z,14.30
2023-03-18T03:03:44.333Z,14.90
2023-03-18T03:08:48.273Z,13.37
2023-03-18T03:13:50.563Z,13.27
2023-03-18T03:18:53.963Z,12.37
2023-03-18T03:23:56.242Z,11.77
2023-03-18T03:28:58.540Z,12.33
2023-03-18T03:34:00.475Z,11.40
2023-03-18T03:39:04.206Z,11.93
2023-03-18T03:44:10.300Z,10.93
2023-03-18T03:49:12.480Z,11.63
2023-03-18T03:54:15.599Z,10.63
2023-03-18T03:59:19.471Z,11.53
2023-03-18T04:04:41.757Z,12.73
2023-03-18T04:09:51.645Z,11.47
2023-03-18T04:14:53.725Z,13.33
2023-03-18T04:19:56.773Z,11.17
2023-03-18T04:25:05.488Z,11.97
2023-03-18T04:30:09.135Z,12.73
2023-03-18T04:35:23.200Z,11.90
2023-03-18T04:40:25.977Z,12.73
2023-03-18T04:45:29.464Z,13.03
2023-03-18T04:50:35.303Z,13.77
2023-03-18T04:55:40.057Z,14.07
2023-03-18T05:00:45.154Z,13.83
2023-03-18T05:05:55.925Z,13.50
2023-03-18T05:11:05.226Z,13.80
2023-03-18T05:16:10.378Z,13.97
2023-03-18T05:21:12.809Z,14.90
2023-03-18T05:26:14.926Z,14.77
2023-03-18T05:31:20.637Z,15.57
2023-03-18T05:36:23.403Z,15.23
2023-03-18T05:41:32.454Z,16.03
2023-03-18T05:46:34.952Z,15.30
2023-03-18T05:51:53.762Z,15.20
2023-03-18T05:57:09.097Z,15.00
2023-03-18T06:02:12.874Z,16.40
2023-03-18T06:07:15.617Z,15.20
2023-03-18T06:12:20.189Z,14.83
2023-03-18T06:17:22.461Z,14.80
2023-03-18T06:22:24.466Z,15.20
2023-03-18T06:27:27.049Z,14.77
2023-03-18T06:32:33.960Z,15.50
2023-03-18T06:37:38.190Z,14.87
2023-03-18T06:42:41.178Z,15.17
2023-03-18T06:47:49.515Z,13.70
2023-03-18T06:52:52.506Z,12.87
2023-03-18T06:58:00.441Z,13.93
2023-03-18T07:03:11.486Z,13.17
2023-03-18T07:08:13.512Z,11.87
2023-03-18T07:13:16.564Z,10.27
2023-03-18T07:18:19.642Z,9.50
2023-03-18T07:23:22.007Z,8.97
2023-03-18T07:28:24.942Z,7.73
2023-03-18T07:33:28.984Z,7.40
2023-03-18T07:38:31.070Z,7.53
2023-03-18T07:43:33.468Z,7.20
2023-03-18T07:48:35.503Z,6.97
2023-03-18T07:53:38.364Z,7.07
2023-03-18T07:58:41.127Z,7.67
2023-03-18T08:03:43.924Z,7.60
2023-03-18T08:08:46.016Z,6.90
2023-03-18T08:13:47.852Z,7.60
2023-03-18T08:18:49.787Z,6.13
2023-03-18T08:23:52.037Z,6.43
2023-03-18T08:28:54.081Z,6.30
2023-03-18T08:33:57.527Z,6.17
2023-03-18T08:39:00.126Z,6.23
2023-03-18T08:44:02.961Z,5.47
2023-03-18T08:49:06.321Z,5.30
2023-03-18T08:54:09.042Z,5.50
2023-03-18T08:59:11.270Z,5.27
2023-03-18T09:04:13.399Z,4.90
2023-03-18T09:09:15.566Z,5.13
2023-03-18T09:14:19.064Z,4.95
2023-03-18T09:19:23.780Z,4.37
2023-03-18T09:24:25.633Z,5.10
2023-03-18T09:29:27.756Z,4.77
2023-03-18T09:34:29.965Z,4.15
2023-03-18T09:39:32.323Z,4.55
2023-03-18T09:44:39.536Z,4.40
2023-03-18T09:49:59.744Z,3.90
2023-03-18T09:55:05.805Z,3.90
2023-03-18T10:00:24.408Z,3.90
2023-03-18T10:05:52.449Z,3.87
2023-03-18T10:10:54.354Z,3.90
2023-03-18T10:15:58.641Z,3.10
2023-03-18T10:21:11.923Z,2.90
2023-03-18T10:26:22.040Z,2.83
2023-03-18T10:31:33.476Z,2.90
2023-03-18T10:36:49.519Z,3.30
2023-03-18T10:41:54.056Z,2.83
2023-03-18T10:47:03.727Z,2.87
2023-03-18T10:52:18.409Z,2.90
2023-03-18T10:57:22.000Z,2.87
2023-03-18T11:02:33.046Z,3.20
2023-03-18T11:07:34.955Z,3.40
2023-03-18T11:12:37.210Z,3.63
2023-03-18T11:17:40.774Z,2.80
2023-03-18T11:22:49.079Z,2.40
2023-03-18T11:28:12.712Z,2.28
2023-03-18T11:33:17.617Z,2.03
2023-03-18T11:38:27.615Z,1.88
2023-03-18T11:43:29.528Z,2.13
2023-03-18T11:48:37.896Z,2.00
2023-03-18T11:53:46.644Z,1.45
2023-03-18T11:58:48.726Z,1.40
2023-03-18T12:03:59.738Z,1.65
2023-03-18T12:09:10.387Z,1.17
2023-03-18T12:14:28.422Z,1.30
2023-03-18T12:20:09.939Z,1.25
2023-03-18T12:25:35.721Z,0.90
2023-03-18T12:30:57.058Z,1.08
2023-03-18T12:36:12.396Z,1.60
2023-03-18T12:41:37.203Z,1.42
2023-03-18T12:47:00.695Z,1.05
2023-03-18T12:52:08.254Z,1.30
2023-03-18T12:57:46.018Z,1.10
2023-03-18T13:02:53.045Z,1.55
2023-03-18T13:08:27.815Z,1.35
2023-03-18T13:13:33.322Z,1.85
2023-03-18T13:18:46.308Z,1.35
2023-03-18T13:24:00.958Z,1.30
2023-03-18T13:29:27.808Z,1.30
2023-03-18T13:34:48.038Z,1.48
2023-03-18T13:40:04.885Z,1.10
2023-03-18T13:45:31.811Z,1.20
2023-03-18T13:50:37.894Z,1.20
2023-03-18T13:55:39.992Z,1.20
2023-03-18T14:01:08.210Z,1.10
2023-03-18T14:06:11.449Z,1.15
2023-03-18T14:11:28.711Z,1.20
2023-03-18T14:16:53.080Z,1.17
2023-03-18T14:22:06.994Z,1.10
2023-03-18T14:27:16.973Z,1.30
2023-03-18T14:32:38.866Z,1.67
2023-03-18T14:38:00.823Z,1.20
2023-03-18T14:43:09.633Z,1.33
2023-03-18T14:48:18.830Z,1.08
2023-03-18T14:53:29.005Z,1.60
2023-03-18T14:58:34.593Z,1.30
2023-03-18T15:03:39.285Z,1.15
2023-03-18T15:08:52.493Z,1.10
2023-03-18T15:13:56.879Z,1.25
2023-03-18T15:19:00.247Z,1.10
2023-03-18T15:24:07.775Z,0.98
2023-03-18T15:29:33.662Z,1.33
2023-03-18T15:34:41.497Z,1.10
2023-03-18T15:39:44.161Z,1.20
2023-03-18T15:44:51.726Z,1.38
2023-03-18T15:50:00.447Z,1.25
2023-03-18T15:55:04.042Z,1.10
2023-03-18T16:00:10.541Z,1.48
2023-03-18T16:05:19.415Z,1.13
2023-03-18T16:10:24.059Z,1.25
2023-03-18T16:15:27.895Z,1.38
2023-03-18T16:20:31.368Z,1.42
2023-03-18T16:25:34.120Z,1.45
2023-03-18T16:30:40.068Z,1.70
2023-03-18T16:35:43.386Z,1.45
2023-03-18T16:40:46.620Z,1.35
2023-03-18T16:45:50.826Z,1.77
2023-03-18T16:50:53.213Z,1.23
2023-03-18T16:55:58.357Z,1.42
2023-03-18T17:01:00.579Z,1.42
2023-03-18T17:06:03.313Z,1.50
2023-03-18T17:11:05.690Z,1.60
2023-03-18T17:16:16.807Z,1.52
2023-03-18T17:21:19.084Z,1.63
2023-03-18T17:26:21.387Z,1.60
2023-03-18T17:31:23.752Z,1.77
2023-03-18T17:36:25.906Z,0.60
2023-03-18T17:41:27.947Z,0.70
2023-03-18T17:46:31.129Z,0.70
2023-03-18T17:51:33.235Z,0.90
2023-03-18T17:56:36.644Z,0.63
2023-03-18T18:01:38.932Z,0.50
2023-03-18T18:06:41.348Z,0.60
2023-03-18T18:11:46.466Z,0.50
2023-03-18T18:16:49.072Z,0.80
2023-03-18T18:21:51.717Z,0.70
2023-03-18T18:26:54.508Z,0.60
2023-03-18T18:31:57.525Z,1.00
2023-03-18T18:36:59.644Z,1.00
2023-03-18T18:42:01.618Z,1.20
2023-03-18T18:47:03.788Z,1.70
2023-03-18T18:52:06.146Z,1.77
2023-03-18T18:57:25.219Z,1.30
2023-03-18T19:02:30.356Z,1.50
2023-03-18T19:07:33.735Z,1.40
2023-03-18T19:12:35.603Z,1.30
2023-03-18T19:17:39.685Z,1.40
2023-03-18T19:22:41.646Z,1.50
2023-03-18T19:27:43.727Z,2.00
2023-03-18T19:32:45.632Z,1.70
2023-03-18T19:37:48.395Z,1.90
2023-03-18T19:42:50.559Z,2.20
2023-03-18T19:47:53.433Z,2.50
2023-03-18T19:52:56.757Z,2.37
2023-03-18T19:57:59.177Z,2.10
2023-03-18T20:03:01.467Z,2.27
2023-03-18T20:08:03.829Z,2.50
2023-03-18T20:13:05.794Z,2.73
2023-03-18T20:18:17.501Z,2.40
2023-03-18T20:23:25.227Z,2.83
2023-03-18T20:28:27.263Z,2.80
2023-03-18T20:33:32.355Z,2.77
2023-03-18T20:38:37.737Z,3.13
2023-03-18T20:43:39.569Z,3.37
2023-03-18T20:48:43.673Z,3.40
2023-03-18T20:53:46.035Z,2.90
2023-03-18T20:58:49.199Z,3.27
2023-03-18T21:03:51.178Z,3.03
2023-03-18T21:08:53.209Z,2.47
2023-03-18T21:13:56.320Z,2.40
2023-03-18T21:18:58.379Z,2.30
2023-03-18T21:24:00.673Z,2.50
2023-03-18T21:29:02.753Z,2.70
2023-03-18T21:34:04.665Z,2.50
2023-03-18T21:39:07.417Z,1.87
2023-03-18T21:44:11.050Z,1.40
2023-03-18T21:49:13.347Z,1.83
2023-03-18T21:54:19.126Z,1.50
2023-03-18T21:59:21.035Z,1.50
2023-03-18T22:04:23.037Z,1.20
2023-03-18T22:09:26.741Z,1.97
2023-03-18T22:14:28.833Z,1.80
2023-03-18T22:19:31.254Z,1.90
2023-03-18T22:24:33.363Z,2.17
2023-03-18T22:29:35.263Z,2.37
2023-03-18T22:34:37.824Z,2.07
2023-03-18T22:39:39.953Z,2.13
2023-03-18T22:44:42.003Z,1.97
2023-03-18T22:49:44.116Z,2.00
2023-03-18T22:54:47.169Z,2.20
2023-03-18T22:59:49.429Z,2.17
2023-03-18T23:04:52.894Z,2.23
2023-03-18T23:09:57.375Z,3.30
2023-03-18T23:14:59.817Z,2.13
2023-03-18T23:20:02.150Z,2.43
2023-03-18T23:25:04.627Z,2.67
2023-03-18T23:30:07.436Z,2.53
2023-03-18T23:35:10.105Z,3.00
2023-03-18T23:40:12.442Z,3.00
2023-03-18T23:45:14.436Z,2.90
2023-03-18T23:50:16.566Z,3.00
2023-03-18T23:55:33.722Z,2.87
